Time;durP1;ratioP1;P1;durP2;ratioP2;P2;SDS_P1;SDS_P2;PMS_P1;PMS_P2;Temp;Humidity;BMP_temperature;BMP_pressure;BME280_temperature;BME280_humidity;BME280_pressure;Samples;Min_cycle;Max_cycle;Signal;HPM_P1;HPM_P2
2021/03/03 00:02:20;;;;;;;36.43;18.43;;;7.60;67.70;;;6.32;62.79;99732.69;5079406;28;20404;-83
2021/03/03 00:04:47;;;;;;;38.38;18.65;;;7.40;68.00;;;6.28;62.80;99727.94;5080050;28;20408;-82
2021/03/03 00:07:14;;;;;;;40.58;18.63;;;7.40;68.20;;;6.17;63.03;99739.63;5079991;28;20399;-83
2021/03/03 00:09:40;;;;;;;36.08;18.88;;;7.30;68.50;;;6.07;64.03;99728.47;5057666;28;20695;-81
2021/03/03 00:12:08;;;;;;;41.05;18.90;;;7.20;69.30;;;5.99;64.28;99731.09;5059001;28;20500;-83
2021/03/03 00:14:36;;;;;;;38.13;18.55;;;7.10;69.80;;;5.99;64.51;99724.03;5059428;28;20401;-81
2021/03/03 00:17:02;;;;;;;41.03;18.35;;;7.10;70.00;;;5.99;64.44;99725.84;5060772;28;20424;-82
2021/03/03 00:19:29;;;;;;;45.63;19.52;;;7.10;70.00;;;5.88;64.92;99720.88;5059453;28;20417;-82
2021/03/03 00:21:56;;;;;;;37.10;18.70;;;7.00;70.40;;;5.90;64.91;99724.19;5060733;28;20436;-82
2021/03/03 00:24:22;;;;;;;42.65;18.92;;;7.00;70.60;;;5.94;64.79;99728.94;5060349;28;20413;-82
2021/03/03 00:26:48;;;;;;;37.97;18.83;;;7.00;70.40;;;5.98;64.56;99727.63;5061446;28;20426;-81
2021/03/03 00:29:15;;;;;;;36.25;18.30;;;7.10;70.40;;;6.00;64.71;99730.09;5063257;28;20422;-79
2021/03/03 00:31:42;;;;;;;35.63;19.02;;;7.10;70.20;;;5.87;64.94;99727.09;5067464;28;20444;-81
2021/03/03 00:34:08;;;;;;;43.55;21.90;;;7.00;70.50;;;5.85;65.30;99729.91;5067175;28;20412;-79
2021/03/03 00:36:34;;;;;;;35.28;19.45;;;7.00;71.00;;;5.79;65.77;99723.47;5066568;28;21122;-80
2021/03/03 00:39:02;;;;;;;41.00;18.67;;;7.00;71.40;;;5.75;65.75;99727.44;5062125;28;20796;-82
2021/03/03 00:41:28;;;;;;;38.53;19.30;;;6.90;71.50;;;5.84;65.35;99725.63;5060902;28;20524;-82
2021/03/03 00:43:54;;;;;;;40.53;20.17;;;7.00;71.40;;;5.90;65.51;99717.13;5060771;28;20483;-82
2021/03/03 00:46:21;;;;;;;42.17;20.60;;;7.00;71.20;;;5.94;65.22;99717.63;5059434;28;20515;-82
2021/03/03 00:48:49;;;;;;;41.40;20.50;;;7.00;71.00;;;5.99;65.13;99720.56;5057996;28;20458;-82
2021/03/03 00:51:15;;;;;;;44.03;20.35;;;7.10;71.00;;;6.02;64.95;99721.06;5057849;28;20835;-82
2021/03/03 00:53:43;;;;;;;37.67;19.85;;;7.10;70.70;;;5.82;65.46;99723.16;5059446;28;20484;-82
2021/03/03 00:56:10;;;;;;;39.22;19.08;;;7.00;71.00;;;5.81;65.61;99726.78;5059192;28;20409;-82
2021/03/03 00:58:37;;;;;;;40.33;19.65;;;7.00;71.10;;;5.80;65.81;99716.41;5059251;28;20482;-82
2021/03/03 01:01:03;;;;;;;37.72;18.90;;;6.90;71.40;;;5.82;65.40;99714.47;5061830;28;20488;-83
2021/03/03 01:03:29;;;;;;;37.35;18.60;;;7.00;71.20;;;5.94;65.10;99720.25;5062201;28;20401;-83
2021/03/03 01:05:56;;;;;;;38.38;19.13;;;7.00;70.90;;;6.02;64.50;99720.22;5061286;28;20751;-81
2021/03/03 01:08:22;;;;;;;36.38;18.67;;;7.10;70.40;;;5.89;64.83;99717.28;5059258;28;20432;-81
2021/03/03 01:10:48;;;;;;;34.20;18.35;;;7.10;70.40;;;6.00;64.65;99716.97;5078800;28;20763;-81
2021/03/03 01:13:15;;;;;;;38.35;19.48;;;7.10;70.50;;;5.97;64.79;99719.91;5078957;28;20414;-83
2021/03/03 01:15:42;;;;;;;37.67;18.98;;;7.10;70.40;;;5.96;64.37;99720.91;5079032;28;20422;-82
2021/03/03 01:18:08;;;;;;;35.72;18.80;;;7.10;70.40;;;5.87;64.89;99712.16;5076412;28;20392;-81
2021/03/03 01:20:34;;;;;;;39.67;18.23;;;7.10;70.20;;;5.74;64.99;99715.28;5077487;28;20766;-81
2021/03/03 01:23:00;;;;;;;34.95;18.95;;;7.00;70.50;;;5.52;65.92;99708.00;5078824;28;20694;-83
2021/03/03 01:25:27;;;;;;;39.05;19.90;;;6.80;71.30;;;5.53;66.30;99712.28;5077860;28;20411;-81
2021/03/03 01:27:53;;;;;;;36.95;18.67;;;6.60;71.90;;;5.56;66.19;99700.66;5077478;28;20423;-81
2021/03/03 01:30:21;;;;;;;36.80;19.95;;;6.70;72.20;;;5.57;66.25;99707.53;5060118;28;20911;-81
2021/03/03 01:32:47;;;;;;;37.15;19.15;;;6.70;72.10;;;5.53;66.31;99704.41;5061143;28;20407;-83
2021/03/03 01:35:14;;;;;;;37.65;19.08;;;6.70;72.10;;;5.62;66.21;99703.44;5078952;28;20412;-83
2021/03/03 01:37:41;;;;;;;37.70;19.50;;;6.70;72.10;;;5.57;66.09;99697.84;5079373;28;21015;-83
2021/03/03 01:40:10;;;;;;;38.95;19.67;;;6.70;72.60;;;5.64;65.76;99690.94;5078111;28;20428;-82
2021/03/03 01:42:37;;;;;;;34.17;18.10;;;6.80;71.40;;;5.75;64.98;99697.69;5084191;28;20404;-83
2021/03/03 01:45:04;;;;;;;33.47;18.17;;;6.80;71.10;;;5.80;64.42;99698.84;5078159;28;20408;-83
2021/03/03 01:47:32;;;;;;;31.50;18.80;;;6.90;70.30;;;5.94;64.27;99697.41;5077768;28;20403;-83
2021/03/03 01:49:58;;;;;;;31.75;17.95;;;7.00;70.10;;;6.07;64.19;99695.13;5077382;28;20407;-82
2021/03/03 01:52:25;;;;;;;35.33;18.95;;;7.10;70.00;;;5.95;64.32;99692.97;5077634;28;20396;-83
2021/03/03 01:54:51;;;;;;;35.20;18.70;;;7.00;70.00;;;5.77;64.85;99687.84;5077570;28;20844;-82
2021/03/03 01:57:18;;;;;;;38.40;17.77;;;6.90;70.50;;;5.65;65.50;99681.25;5076735;28;20400;-82
2021/03/03 01:59:44;;;;;;;36.53;17.77;;;6.80;70.90;;;5.70;65.31;99682.44;5074105;28;20484;-82
2021/03/03 02:02:10;;;;;;;42.33;19.13;;;6.80;71.10;;;5.70;65.39;99687.69;5057324;28;20702;-83
2021/03/03 02:04:38;;;;;;;33.22;17.80;;;6.80;71.00;;;5.78;65.27;99682.44;5075684;28;20413;-83
2021/03/03 02:07:14;;;;;;;36.73;17.83;;;6.80;71.00;;;5.93;64.54;99687.06;5075159;28;20459;-82
2021/03/03 02:09:52;;;;;;;35.25;18.73;;;6.90;70.60;;;5.91;65.37;99689.84;5074133;28;20909;-82
2021/03/03 02:12:25;;;;;;;35.63;18.35;;;7.00;70.50;;;5.60;65.77;99683.56;5058195;28;20451;-82
2021/03/03 02:14:58;;;;;;;37.20;18.23;;;6.80;71.30;;;5.68;65.62;99680.94;5076692;28;20511;-82
2021/03/03 02:17:27;;;;;;;35.15;18.67;;;6.80;71.50;;;5.70;65.42;99679.81;5077593;28;20439;-82
2021/03/03 02:19:59;;;;;;;33.40;17.90;;;6.80;71.30;;;5.74;65.14;99683.72;5076553;28;20406;-83
2021/03/03 02:22:39;;;;;;;38.35;19.00;;;6.80;70.80;;;5.74;64.23;99677.66;5077155;28;20404;-82
2021/03/03 02:25:26;;;;;;;34.70;18.90;;;6.90;70.40;;;5.78;64.06;99682.44;5077548;28;20419;-82
2021/03/03 02:27:55;;;;;;;35.92;17.83;;;6.90;69.90;;;5.95;64.46;99683.28;5079960;28;20694;-82
2021/03/03 02:30:23;;;;;;;37.25;18.35;;;7.00;70.50;;;5.87;64.50;99679.78;5061869;28;20447;-81
2021/03/03 02:32:51;;;;;;;37.92;18.33;;;6.90;70.20;;;5.77;64.04;99677.34;5078969;28;20403;-81
2021/03/03 02:35:19;;;;;;;36.28;20.15;;;6.90;69.60;;;5.77;64.02;99679.97;5079156;28;20498;-81
2021/03/03 02:37:47;;;;;;;36.97;18.08;;;6.80;69.60;;;5.96;63.70;99684.91;5077864;28;20416;-82
2021/03/03 02:40:16;;;;;;;41.13;18.88;;;7.00;69.80;;;5.95;63.79;99678.00;5077623;28;20721;-81
2021/03/03 02:42:43;;;;;;;40.15;18.98;;;7.00;69.70;;;5.74;64.53;99681.09;5079176;28;20410;-82
2021/03/03 02:45:13;;;;;;;35.38;17.73;;;6.90;69.70;;;5.74;64.47;99678.47;5079510;28;20415;-81
2021/03/03 02:47:40;;;;;;;37.60;18.70;;;6.80;70.20;;;5.60;64.82;99679.13;5082414;28;20407;-81
2021/03/03 02:50:09;;;;;;;35.65;17.92;;;6.80;70.30;;;5.55;64.76;99684.06;5080642;28;20415;-81
2021/03/03 02:52:54;;;;;;;37.78;19.05;;;6.70;70.40;;;5.56;64.97;99683.09;5080465;28;20410;-81
2021/03/03 02:55:24;;;;;;;36.85;18.75;;;6.70;70.70;;;5.39;65.50;99689.28;5079242;28;20407;-81
2021/03/03 02:57:51;;;;;;;40.80;19.13;;;6.50;71.10;;;5.31;66.19;99686.63;5082656;28;20497;-82
2021/03/03 03:00:24;;;;;;;42.22;19.17;;;6.50;71.80;;;5.30;66.21;99687.63;5081471;28;20861;-80
2021/03/03 03:03:00;;;;;;;36.88;18.55;;;6.40;72.00;;;5.34;65.91;99678.41;5086008;28;20403;-81
2021/03/03 03:05:28;;;;;;;40.80;19.23;;;6.50;71.70;;;5.41;66.03;99668.94;5092270;28;20438;-80
2021/03/03 03:08:02;;;;;;;38.97;18.55;;;6.60;71.90;;;5.52;65.47;99667.78;5082840;28;20797;-82
2021/03/03 03:10:31;;;;;;;41.80;18.08;;;6.60;71.50;;;5.62;65.31;99665.84;5082961;28;20485;-82
2021/03/03 03:12:59;;;;;;;36.45;18.92;;;6.70;71.20;;;5.39;66.04;99669.09;5080614;28;20407;-82
2021/03/03 03:15:30;;;;;;;38.58;18.50;;;6.60;71.70;;;5.28;66.76;99668.56;5080831;28;20510;-82
2021/03/03 03:18:07;;;;;;;38.55;18.83;;;6.50;72.30;;;5.31;66.63;99663.00;5080590;28;20465;-82
2021/03/03 03:20:36;;;;;;;34.08;18.00;;;6.40;72.50;;;5.44;66.19;99674.69;5080317;28;20485;-82
2021/03/03 03:23:07;;;;;;;42.13;19.23;;;6.50;72.30;;;5.38;66.48;99669.25;5080304;28;20438;-83
2021/03/03 03:25:36;;;;;;;42.55;19.58;;;6.50;72.10;;;5.40;66.17;99662.03;5080453;28;20442;-82
2021/03/03 03:28:03;;;;;;;39.65;17.27;;;6.60;71.90;;;5.22;67.00;99661.34;5079830;28;20420;-82
2021/03/03 03:30:30;;;;;;;34.03;17.70;;;6.40;72.60;;;5.22;67.03;99672.66;5079979;28;20778;-81
2021/03/03 03:32:58;;;;;;;44.25;17.92;;;6.40;72.90;;;5.29;66.70;99670.22;5079857;28;20489;-82
2021/03/03 03:35:26;;;;;;;35.33;18.35;;;6.40;72.60;;;5.14;67.12;99672.66;5062362;28;20415;-82
2021/03/03 03:37:53;;;;;;;35.60;19.52;;;6.40;72.70;;;5.20;67.33;99677.25;5079899;28;20410;-81
2021/03/03 03:40:23;;;;;;;41.17;18.95;;;6.30;73.10;;;5.20;67.06;99674.63;5079167;28;20423;-82
2021/03/03 03:42:55;;;;;;;36.85;18.13;;;6.40;73.10;;;5.25;67.05;99679.41;5080845;28;20498;-83
2021/03/03 03:45:23;;;;;;;38.03;18.50;;;6.40;73.10;;;5.21;67.09;99676.28;5080552;28;20502;-82
2021/03/03 03:47:50;;;;;;;35.17;18.08;;;6.40;73.00;;;5.04;67.70;99674.56;5079611;28;21003;-82
2021/03/03 03:50:17;;;;;;;35.95;18.75;;;6.20;73.30;;;5.00;67.76;99675.88;5078445;28;20492;-81
2021/03/03 03:52:44;;;;;;;33.15;17.95;;;6.20;73.80;;;4.95;68.13;99671.13;5079649;28;20407;-82
2021/03/03 03:55:12;;;;;;;41.05;18.67;;;6.10;74.00;;;4.83;68.51;99682.03;5079383;28;20411;-82
2021/03/03 03:57:50;;;;;;;41.45;19.38;;;6.00;74.30;;;4.89;68.27;99692.72;5079809;28;20407;-82
2021/03/03 04:00:19;;;;;;;43.03;18.60;;;6.00;74.60;;;4.96;68.21;99683.25;5078083;28;20415;-82
2021/03/03 04:02:46;;;;;;;36.45;17.98;;;6.10;74.30;;;5.05;67.99;99686.72;5077485;28;20422;-82
2021/03/03 04:05:14;;;;;;;42.55;19.90;;;6.20;74.00;;;4.74;68.72;99682.97;5078403;28;20438;-82
2021/03/03 04:07:41;;;;;;;36.67;18.60;;;6.00;74.40;;;4.84;68.70;99695.00;5078274;28;20408;-82
2021/03/03 04:10:10;;;;;;;42.50;19.30;;;5.90;74.80;;;4.96;68.25;99693.75;5077823;28;20703;-82
2021/03/03 04:12:36;;;;;;;36.90;18.67;;;6.10;74.40;;;4.91;68.24;99695.19;5080137;28;20797;-83
2021/03/03 04:15:06;;;;;;;41.72;19.83;;;6.10;74.30;;;4.80;68.60;99698.94;5079650;28;20868;-82
2021/03/03 04:17:32;;;;;;;36.65;18.45;;;6.00;74.60;;;4.85;68.61;99694.03;5080475;28;20420;-83
2021/03/03 04:19:58;;;;;;;37.40;18.80;;;6.00;74.60;;;5.03;68.02;99702.66;5080948;28;20479;-81
2021/03/03 04:22:24;;;;;;;37.42;18.85;;;6.10;74.30;;;4.98;67.94;99699.66;5081740;28;20400;-82
2021/03/03 04:24:51;;;;;;;39.53;18.77;;;6.20;74.00;;;4.94;68.17;99700.16;5079737;28;20533;-82
2021/03/03 04:27:17;;;;;;;39.38;19.40;;;6.10;74.10;;;4.97;68.14;99699.81;5061878;28;20439;-82
2021/03/03 04:29:43;;;;;;;35.95;18.30;;;6.10;74.30;;;4.97;68.10;99700.63;5079255;28;20446;-82
2021/03/03 04:32:10;;;;;;;35.10;18.23;;;6.10;74.10;;;4.76;68.81;99692.34;5079034;28;20502;-82
2021/03/03 04:34:36;;;;;;;36.85;18.75;;;6.00;74.30;;;4.77;68.75;99698.41;5060839;28;20441;-82
2021/03/03 04:37:03;;;;;;;37.70;18.67;;;5.90;74.80;;;4.63;69.23;99699.84;5079137;28;20411;-81
2021/03/03 04:39:29;;;;;;;41.80;19.03;;;5.80;75.00;;;4.73;69.00;99695.31;5078300;28;20727;-82
2021/03/03 04:41:55;;;;;;;40.65;19.33;;;5.90;75.10;;;4.84;68.69;99695.00;5078511;28;20416;-82
2021/03/03 04:44:22;;;;;;;38.65;18.13;;;6.00;74.80;;;5.07;67.85;99698.72;5078010;28;20407;-82
2021/03/03 04:46:48;;;;;;;43.92;20.23;;;6.10;74.20;;;4.92;68.15;99688.97;5077866;28;20434;-81
2021/03/03 04:49:16;;;;;;;40.33;18.88;;;6.10;73.90;;;4.96;68.09;99692.94;5085480;28;20489;-80
2021/03/03 04:51:42;;;;;;;40.50;18.58;;;6.10;74.20;;;5.10;67.61;99692.34;5086324;28;20786;-81
2021/03/03 04:54:09;;;;;;;37.67;18.30;;;6.20;74.00;;;4.94;68.08;99692.28;5086365;28;20419;-81
2021/03/03 04:56:35;;;;;;;42.43;19.33;;;6.10;73.80;;;4.77;68.51;99694.00;5079220;28;20464;-83
2021/03/03 04:59:01;;;;;;;33.58;18.15;;;6.00;74.40;;;4.74;68.92;99691.69;5079303;28;20399;-82
2021/03/03 05:01:28;;;;;;;41.30;18.08;;;5.90;74.80;;;4.65;69.38;99682.97;5085009;28;20412;-82
2021/03/03 05:03:54;;;;;;;34.70;18.92;;;5.90;75.00;;;4.61;69.31;99683.44;5079624;28;20399;-82
2021/03/03 05:06:21;;;;;;;39.78;18.73;;;5.80;75.40;;;4.67;69.20;99680.16;5080138;28;20408;-81
2021/03/03 05:08:47;;;;;;;40.75;19.40;;;5.80;75.40;;;4.69;69.09;99680.84;5079595;28;20455;-82
2021/03/03 05:11:14;;;;;;;34.47;18.55;;;5.80;75.30;;;4.70;69.07;99687.75;5083534;28;20427;-82
2021/03/03 05:13:40;;;;;;;37.30;19.10;;;5.80;75.30;;;4.77;68.72;99677.44;5081625;28;20408;-82
2021/03/03 05:16:06;;;;;;;42.75;19.92;;;5.90;75.10;;;4.78;68.72;99681.72;5086883;28;20445;-84
2021/03/03 05:18:32;;;;;;;45.05;19.85;;;5.90;75.00;;;4.91;68.34;99682.06;5077904;28;20491;-84
2021/03/03 05:20:59;;;;;;;39.65;19.70;;;6.00;74.70;;;4.98;68.05;99686.53;5094471;28;20435;-80
2021/03/03 05:23:28;;;;;;;39.00;20.75;;;6.10;74.30;;;4.97;67.91;99681.44;5087891;28;20813;-83
2021/03/03 05:25:54;;;;;;;39.17;18.98;;;6.10;74.20;;;5.09;67.66;99674.94;5084462;28;20427;-82
2021/03/03 05:28:20;;;;;;;35.50;18.23;;;6.20;73.90;;;5.04;67.73;99683.28;5084634;28;20434;-84
2021/03/03 05:30:47;;;;;;;40.88;19.20;;;6.20;73.70;;;5.11;67.41;99675.59;5064348;28;20776;-81
2021/03/03 05:33:23;;;;;;;39.40;20.48;;;6.20;73.70;;;4.95;67.98;99676.38;5083351;28;20408;-79
2021/03/03 05:35:49;;;;;;;43.13;19.08;;;6.10;73.80;;;4.87;68.42;99671.09;5088203;28;20412;-83
2021/03/03 05:38:16;;;;;;;34.08;18.02;;;6.10;74.30;;;4.89;68.37;99658.63;5081881;28;20756;-83
2021/03/03 05:40:45;;;;;;;36.13;19.70;;;6.00;74.20;;;4.92;68.43;99658.31;5084979;28;20607;-82
2021/03/03 05:43:11;;;;;;;38.00;19.15;;;6.00;74.60;;;4.73;69.05;99665.63;5089277;28;20419;-80
2021/03/03 05:45:41;;;;;;;38.17;19.25;;;6.00;74.70;;;4.60;69.47;99666.88;5082412;28;20794;-82
2021/03/03 05:48:14;;;;;;;43.13;19.08;;;5.80;75.30;;;4.56;69.64;99664.72;5085461;28;20432;-81
2021/03/03 05:50:45;;;;;;;40.20;19.17;;;5.70;75.80;;;4.66;69.41;99666.22;5084946;28;20436;-82
2021/03/03 05:53:14;;;;;;;38.38;20.08;;;5.80;75.70;;;4.82;68.66;99672.53;5088930;28;20425;-82
2021/03/03 05:55:42;;;;;;;39.90;20.00;;;5.90;75.10;;;5.00;68.44;99670.63;5091568;28;20396;-82
2021/03/03 05:58:10;;;;;;;42.00;19.73;;;6.00;74.60;;;5.10;67.36;99673.97;5092495;28;20414;-82
2021/03/03 06:00:37;;;;;;;43.95;20.42;;;6.20;73.80;;;5.10;67.42;99678.38;5085890;28;20806;-82
2021/03/03 06:03:04;;;;;;;35.53;19.15;;;6.20;73.60;;;5.02;67.74;99673.94;5078483;28;20407;-83
2021/03/03 06:05:32;;;;;;;38.00;20.13;;;6.20;73.80;;;4.98;68.11;99678.66;5086034;28;20493;-80
2021/03/03 06:07:58;;;;;;;39.97;19.93;;;6.10;74.20;;;4.95;68.27;99680.81;5079522;28;20548;-80
2021/03/03 06:10:25;;;;;;;39.13;19.98;;;6.10;74.60;;;5.02;68.26;99682.63;5077537;28;20538;-82
2021/03/03 06:12:52;;;;;;;35.22;19.58;;;6.10;74.50;;;5.09;67.91;99690.69;5078046;28;20408;-82
2021/03/03 06:15:19;;;;;;;43.63;20.33;;;6.20;74.10;;;5.22;67.58;99696.28;5080392;28;20446;-81
2021/03/03 06:17:46;;;;;;;45.83;22.10;;;6.30;73.80;;;5.16;67.41;99686.44;5079900;28;20464;-80
2021/03/03 06:20:13;;;;;;;38.97;20.42;;;6.30;73.40;;;5.01;67.99;99694.09;5079029;28;20427;-80
2021/03/03 06:22:39;;;;;;;47.42;21.13;;;6.20;73.70;;;4.85;68.71;99695.84;5079253;28;20465;-80
2021/03/03 06:25:18;;;;;;;42.88;20.77;;;6.00;74.60;;;4.89;68.92;99694.53;5078947;28;20416;-81
2021/03/03 06:28:43;;;;;;;49.38;20.88;;;6.00;75.10;;;5.06;68.34;99694.44;5079956;28;20408;-82
2021/03/03 06:31:33;;;;;;;39.95;20.42;;;6.10;74.90;;;5.15;68.09;99699.72;5062940;28;20488;-82
2021/03/03 06:34:12;;;;;;;50.33;21.45;;;6.20;74.40;;;5.06;68.24;99693.63;5087078;28;20440;-81
2021/03/03 06:36:40;;;;;;;50.47;20.58;;;6.20;74.40;;;5.06;68.80;99696.25;5086204;28;20483;-80
2021/03/03 06:39:22;;;;;;;43.55;20.08;;;6.20;75.00;;;5.11;68.29;99691.34;5085251;28;20407;-81
2021/03/03 06:41:50;;;;;;;41.17;19.67;;;6.20;74.60;;;5.19;68.08;99693.97;5082056;28;20445;-82
2021/03/03 06:44:17;;;;;;;50.83;21.38;;;6.20;74.40;;;5.32;67.35;99691.75;5081166;28;20408;-81
2021/03/03 06:47:01;;;;;;;118.30;43.80;;;6.40;73.80;;;5.43;67.06;99691.41;5078553;28;20445;-83
2021/03/03 06:49:27;;;;;;;75.50;33.60;;;6.50;73.40;;;5.29;67.59;99702.56;5076653;28;20451;-82
2021/03/03 06:51:55;;;;;;;65.18;31.58;;;6.40;73.60;;;5.21;67.83;99699.91;5077534;28;20793;-82
2021/03/03 06:54:23;;;;;;;53.50;24.20;;;6.40;73.80;;;5.27;67.88;99699.25;5076194;28;20411;-81
2021/03/03 06:56:51;;;;;;;44.40;21.03;;;6.30;74.10;;;5.33;67.64;99697.81;5076105;28;20782;-81
2021/03/03 06:59:22;;;;;;;38.22;20.73;;;6.40;74.00;;;5.39;67.26;99694.53;5075814;28;20847;-81
2021/03/03 07:01:51;;;;;;;43.35;20.35;;;6.50;73.60;;;5.60;66.65;99694.91;5075713;28;20423;-81
2021/03/03 07:04:25;;;;;;;42.63;20.65;;;6.60;73.10;;;5.67;66.17;99702.94;5076154;28;20438;-81
2021/03/03 07:06:53;;;;;;;45.33;21.05;;;6.80;72.50;;;5.57;66.64;99710.97;5059035;28;20415;-81
2021/03/03 07:09:24;;;;;;;43.30;21.02;;;6.70;72.60;;;5.61;66.75;99704.44;5076163;28;20738;-81
2021/03/03 07:12:03;;;;;;;127.82;44.45;;;6.70;72.90;;;5.76;66.40;99699.34;5080361;28;20414;-81
2021/03/03 07:14:31;;;;;;;50.85;22.95;;;6.80;72.60;;;5.84;66.10;99699.34;5081717;28;20630;-81
2021/03/03 07:17:15;;;;;;;44.80;20.95;;;6.90;73.10;;;5.87;65.45;99696.38;5060380;28;20741;-82
2021/03/03 07:19:46;;;;;;;52.63;21.95;;;7.00;71.90;;;6.03;65.31;99709.56;5079759;28;20557;-84
2021/03/03 07:22:41;;;;;;;60.22;22.75;;;7.00;71.60;;;5.85;65.80;99706.25;5078464;28;20761;-83
2021/03/03 07:25:10;;;;;;;48.38;22.60;;;7.00;71.60;;;5.98;65.34;99703.97;5079240;28;20434;-80
2021/03/03 07:27:38;;;;;;;48.58;22.55;;;7.00;71.40;;;5.99;65.12;99704.81;5079540;28;20400;-80
2021/03/03 07:30:09;;;;;;;44.28;20.83;;;7.00;71.20;;;6.03;63.88;99700.84;5080762;28;20423;-80
2021/03/03 07:32:36;;;;;;;47.03;20.58;;;7.10;70.10;;;6.07;63.64;99708.25;5081339;28;20817;-81
2021/03/03 07:35:05;;;;;;;46.53;20.58;;;7.10;69.60;;;6.08;63.37;99712.53;5084612;28;20438;-82
2021/03/03 07:37:34;;;;;;;51.97;20.67;;;7.10;69.20;;;6.19;63.23;99714.00;5089962;28;20440;-79
2021/03/03 07:40:04;;;;;;;44.83;20.30;;;7.20;69.10;;;6.31;62.66;99717.94;5091338;28;20422;-81
2021/03/03 07:42:32;;;;;;;53.65;21.13;;;7.30;68.90;;;6.34;62.13;99703.63;5083459;28;20412;-81
2021/03/03 07:45:01;;;;;;;50.40;20.77;;;7.30;68.20;;;6.34;61.95;99699.16;5083132;28;20541;-81
2021/03/03 07:47:34;;;;;;;48.60;19.60;;;7.40;67.80;;;6.31;61.53;99698.69;5065665;28;20400;-81
2021/03/03 07:50:05;;;;;;;58.95;21.55;;;7.30;67.40;;;6.31;61.54;99699.53;5081672;28;20427;-80
2021/03/03 07:52:33;;;;;;;54.53;20.77;;;7.40;67.30;;;6.35;61.02;99700.81;5081780;28;20411;-80
2021/03/03 07:55:00;;;;;;;47.42;21.00;;;7.40;67.10;;;6.44;61.20;99705.09;5063522;28;20430;-82
2021/03/03 07:57:28;;;;;;;54.08;20.30;;;7.40;67.10;;;6.56;60.98;99695.84;5079973;28;20436;-81
2021/03/03 07:59:55;;;;;;;51.10;21.30;;;7.50;67.00;;;6.62;60.85;99704.84;5079286;28;20408;-81
2021/03/03 08:02:22;;;;;;;53.42;22.00;;;7.60;66.80;;;6.62;60.60;99707.50;5081110;28;20411;-80
2021/03/03 08:05:01;;;;;;;51.08;21.60;;;7.60;66.40;;;6.67;60.74;99701.75;5079816;28;20538;-80
2021/03/03 08:07:27;;;;;;;53.40;22.15;;;7.60;66.50;;;6.66;60.36;99700.09;5080597;28;20505;-80
2021/03/03 08:10:22;;;;;;;57.23;21.90;;;7.70;66.10;;;6.64;60.39;99688.91;5079870;28;20424;-80
2021/03/03 08:13:04;;;;;;;60.10;21.50;;;7.60;66.10;;;6.75;60.07;99684.13;5060347;28;20518;-81
2021/03/03 08:15:41;;;;;;;48.63;21.70;;;7.70;65.80;;;6.70;59.93;99691.69;5080297;28;20412;-82
2021/03/03 08:18:27;;;;;;;42.55;21.48;;;7.70;65.60;;;6.76;59.83;99688.38;5084877;28;20830;-80
2021/03/03 08:20:56;;;;;;;58.30;23.95;;;7.80;65.60;;;6.87;59.80;99689.81;5079815;28;20743;-80
2021/03/03 08:23:46;;;;;;;62.03;21.07;;;7.80;65.50;;;6.88;59.68;99694.09;5078892;28;20408;-82
2021/03/03 08:26:34;;;;;;;49.38;20.92;;;7.90;65.30;;;6.89;59.64;99693.94;5061103;28;20713;-79
2021/03/03 08:29:27;;;;;;;51.38;21.48;;;7.90;65.10;;;6.97;59.44;99696.53;5077962;28;20764;-80
2021/03/03 08:32:21;;;;;;;53.75;21.92;;;7.90;65.00;;;7.09;59.21;99682.97;5077660;28;20507;-79
2021/03/03 08:34:53;;;;;;;51.33;20.97;;;8.00;64.80;;;7.12;59.01;99706.34;5078091;28;20404;-80
2021/03/03 08:37:38;;;;;;;61.33;24.00;;;8.10;64.60;;;7.17;58.83;99691.66;5080647;28;20423;-81
2021/03/03 08:40:25;;;;;;;56.40;21.35;;;8.20;64.40;;;7.23;58.60;99696.22;5078868;28;20465;-80
2021/03/03 08:42:52;;;;;;;48.03;21.10;;;8.20;64.30;;;7.29;58.41;99695.53;5080126;28;20805;-81
2021/03/03 08:45:20;;;;;;;47.65;21.75;;;8.30;64.00;;;7.39;58.08;99692.69;5080061;28;20425;-81
2021/03/03 08:48:00;;;;;;;49.63;22.25;;;8.30;63.80;;;7.39;58.00;99695.31;5079999;28;20445;-81
2021/03/03 08:50:40;;;;;;;57.40;25.10;;;8.40;63.50;;;7.38;58.08;99689.22;5080824;28;20516;-81
2021/03/03 08:53:31;;;;;;;62.40;27.07;;;8.40;63.40;;;7.46;58.03;99685.72;5079791;28;20412;-80
2021/03/03 08:56:00;;;;;;;66.82;25.17;;;8.40;63.50;;;7.47;57.81;99691.81;5081910;28;20789;-82
2021/03/03 08:58:51;;;;;;;56.22;22.67;;;8.40;63.10;;;7.56;57.61;99686.31;5079708;28;20407;-81
2021/03/03 09:01:18;;;;;;;56.67;24.25;;;8.50;62.90;;;7.58;57.14;99689.59;5079794;28;20426;-80
2021/03/03 09:03:49;;;;;;;50.33;22.45;;;8.50;63.30;;;7.62;57.06;99692.69;5080410;28;20408;-81
2021/03/03 09:06:22;;;;;;;58.28;22.80;;;8.60;62.50;;;7.69;56.97;99681.28;5073608;28;20703;-82
2021/03/03 09:08:57;;;;;;;53.10;23.13;;;8.60;62.30;;;7.73;56.82;99689.66;5042429;28;20516;-81
2021/03/03 09:11:24;;;;;;;50.60;21.50;;;8.70;62.10;;;7.76;57.10;99690.13;5057865;28;20417;-80
2021/03/03 09:13:55;;;;;;;51.00;22.88;;;8.70;62.10;;;7.82;56.72;99682.53;5066132;28;20393;-77
2021/03/03 09:16:22;;;;;;;62.87;21.97;;;8.80;61.90;;;7.89;56.70;99681.63;5060337;28;20422;-80
2021/03/03 09:19:06;;;;;;;54.47;21.88;;;8.80;61.90;;;7.99;56.68;99691.91;5073303;28;20416;-82
2021/03/03 09:21:33;;;;;;;53.05;21.63;;;8.90;61.70;;;7.99;55.88;99697.19;5055759;28;20494;-81
2021/03/03 09:24:11;;;;;;;51.35;22.27;;;9.00;61.00;;;7.98;55.98;99687.63;5057942;28;20479;-79
2021/03/03 09:26:38;;;;;;;59.30;21.58;;;8.90;60.90;;;7.96;56.10;99687.84;5057102;28;20451;-83
2021/03/03 09:29:05;;;;;;;60.30;23.63;;;8.90;61.10;;;7.96;55.99;99687.84;5055990;28;20516;-79
2021/03/03 09:31:34;;;;;;;49.95;21.05;;;8.90;61.00;;;8.01;55.92;99696.03;5055378;28;20519;-80
2021/03/03 09:34:01;;;;;;;51.55;21.52;;;9.00;61.70;;;8.10;55.78;99689.69;5057419;28;20683;-81
2021/03/03 09:36:28;;;;;;;56.17;20.42;;;9.00;60.90;;;8.22;55.61;99694.53;5056551;28;20450;-81
2021/03/03 09:38:57;;;;;;;55.70;21.65;;;9.10;60.70;;;8.27;55.36;99687.69;5053975;28;20408;-80
2021/03/03 09:41:25;;;;;;;54.17;21.73;;;9.20;60.30;;;8.24;55.44;99681.97;5057032;28;20474;-81
2021/03/03 09:44:03;;;;;;;51.67;21.20;;;9.20;60.30;;;8.29;55.40;99679.59;5060883;28;20526;-79
2021/03/03 09:46:53;;;;;;;58.63;22.27;;;9.20;60.20;;;8.34;55.09;99680.75;5058610;28;20417;-79
2021/03/03 09:49:28;;;;;;;54.97;21.25;;;9.30;60.00;;;8.35;54.94;99682.38;5071302;28;20417;-80
2021/03/03 09:51:56;;;;;;;69.15;22.27;;;9.30;59.90;;;8.41;55.05;99671.13;5072842;28;20421;-80
2021/03/03 09:54:31;;;;;;;53.35;21.13;;;9.30;59.90;;;8.47;54.92;99669.56;5078089;28;20436;-81
2021/03/03 09:57:12;;;;;;;61.33;22.20;;;9.40;59.80;;;8.49;54.84;99671.00;5060358;28;20470;-80
2021/03/03 09:59:43;;;;;;;53.70;20.98;;;9.50;59.80;;;8.58;54.67;99670.91;5060122;28;20691;-80
2021/03/03 10:02:11;;;;;;;48.25;21.88;;;9.50;59.60;;;8.61;54.62;99674.03;5076435;28;20415;-79
2021/03/03 10:04:40;;;;;;;45.23;21.50;;;9.50;59.40;;;8.64;54.18;99672.84;5075662;28;20888;-80
2021/03/03 10:07:14;;;;;;;54.72;22.40;;;9.60;59.20;;;8.68;54.29;99677.56;5059077;28;20413;-81
2021/03/03 10:09:42;;;;;;;53.85;23.10;;;9.60;59.10;;;8.71;54.20;99673.75;5074252;28;20426;-81
2021/03/03 10:12:13;;;;;;;58.03;22.47;;;9.60;59.10;;;8.74;53.90;99673.38;5060685;28;20485;-81
2021/03/03 10:15:00;;;;;;;54.73;22.13;;;9.70;58.90;;;8.77;53.89;99671.22;5062355;28;20471;-80
2021/03/03 10:17:51;;;;;;;48.70;22.00;;;9.70;58.90;;;8.82;54.12;99670.66;5061691;28;20405;-81
2021/03/03 10:20:48;;;;;;;52.27;20.97;;;9.80;58.90;;;8.86;54.03;99674.56;5073588;28;21448;-81
2021/03/03 10:23:16;;;;;;;60.95;22.25;;;9.80;59.00;;;8.92;53.96;99674.66;5050230;28;20699;-80
2021/03/03 10:25:45;;;;;;;47.83;21.10;;;9.80;58.80;;;8.96;53.40;99677.72;5065636;28;20413;-81
2021/03/03 10:28:15;;;;;;;47.73;21.37;;;9.90;58.50;;;8.99;53.23;99666.81;5065768;28;20440;-81
2021/03/03 10:30:42;;;;;;;50.80;20.98;;;9.90;58.20;;;9.09;53.16;99672.63;5067677;28;20412;-82
2021/03/03 10:33:11;;;;;;;49.35;21.08;;;10.00;58.20;;;9.13;52.97;99675.69;5070051;28;20401;-81
2021/03/03 10:35:48;;;;;;;54.07;21.63;;;10.00;58.00;;;9.24;52.51;99669.94;5068626;28;20438;-80